sensor_id;sensor_type;location;lat;lon;timestamp;pressure;altitude;pressure_sealevel;temperature
39959;BMP280;25639;53.634;9.880;2023-04-29T00:01:02;148927.88;;;-14.02
39959;BMP280;25639;53.634;9.880;2023-04-29T00:03:28;148917.88;;;-14.06
39959;BMP280;25639;53.634;9.880;2023-04-29T00:05:56;148921.66;;;-14.05
39959;BMP280;25639;53.634;9.880;2023-04-29T00:08:21;148901.59;;;-14.13
39959;BMP280;25639;53.634;9.880;2023-04-29T00:10:47;148927.88;;;-14.02
39959;BMP280;25639;53.634;9.880;2023-04-29T00:13:12;148920.41;;;-14.05
39959;BMP280;25639;53.634;9.880;2023-04-29T00:15:39;148881.63;;;-14.21
39959;BMP280;25639;53.634;9.880;2023-04-29T00:18:05;148864.09;;;-14.28
39959;BMP280;25639;53.634;9.880;2023-04-29T00:20:30;148864.09;;;-14.28
39959;BMP280;25639;53.634;9.880;2023-04-29T00:22:55;148897.91;;;-14.14
39959;BMP280;25639;53.634;9.880;2023-04-29T00:25:21;148865.34;;;-14.28
39959;BMP280;25639;53.634;9.880;2023-04-29T00:27:46;148837.84;;;-14.39
39959;BMP280;25639;53.634;9.880;2023-04-29T00:30:11;148856.59;;;-14.31
39959;BMP280;25639;53.634;9.880;2023-04-29T00:32:37;148860.34;;;-14.30
39959;BMP280;25639;53.634;9.880;2023-04-29T00:35:02;148851.59;;;-14.33
39959;BMP280;25639;53.634;9.880;2023-04-29T00:37:27;148864.09;;;-14.28
39959;BMP280;25639;53.634;9.880;2023-04-29T00:39:53;148856.59;;;-14.31
39959;BMP280;25639;53.634;9.880;2023-04-29T00:42:19;148876.63;;;-14.23
39959;BMP280;25639;53.634;9.880;2023-04-29T00:44:44;148844.06;;;-14.36
39959;BMP280;25639;53.634;9.880;2023-04-29T00:47:10;148821.56;;;-14.46
39959;BMP280;25639;53.634;9.880;2023-04-29T00:49:37;148821.56;;;-14.46
39959;BMP280;25639;53.634;9.880;2023-04-29T00:52:03;148780.34;;;-14.63
39959;BMP280;25639;53.634;9.880;2023-04-29T00:54:29;148817.81;;;-14.47
39959;BMP280;25639;53.634;9.880;2023-04-29T00:56:54;148825.31;;;-14.44
39959;BMP280;25639;53.634;9.880;2023-04-29T00:59:20;148826.56;;;-14.44
39959;BMP280;25639;53.634;9.880;2023-04-29T01:01:46;148816.56;;;-14.48
39959;BMP280;25639;53.634;9.880;2023-04-29T01:04:12;148806.56;;;-14.52
39959;BMP280;25639;53.634;9.880;2023-04-29T01:07:12;148799.06;;;-14.55
39959;BMP280;25639;53.634;9.880;2023-04-29T01:10:15;148784.06;;;-14.61
39959;BMP280;25639;53.634;9.880;2023-04-29T01:12:53;148770.31;;;-14.67
39959;BMP280;25639;53.634;9.880;2023-04-29T01:15:30;148776.59;;;-14.64
39959;BMP280;25639;53.634;9.880;2023-04-29T01:18:19;148760.34;;;-14.71
39959;BMP280;25639;53.634;9.880;2023-04-29T01:20:48;148774.09;;;-14.65
39959;BMP280;25639;53.634;9.880;2023-04-29T01:23:14;148746.59;;;-14.76
39959;BMP280;25639;53.634;9.880;2023-04-29T01:25:39;148756.56;;;-14.72
39959;BMP280;25639;53.634;9.880;2023-04-29T01:31:06;148821.56;;;-14.46
39959;BMP280;25639;53.634;9.880;2023-04-29T01:34:00;148836.56;;;-14.40
39959;BMP280;25639;53.634;9.880;2023-04-29T01:36:46;148826.56;;;-14.44
39959;BMP280;25639;53.634;9.880;2023-04-29T01:39:26;148827.78;;;-14.43
39959;BMP280;25639;53.634;9.880;2023-04-29T01:44:32;148841.59;;;-14.37
39959;BMP280;25639;53.634;9.880;2023-04-29T01:46:59;148886.63;;;-14.19
39959;BMP280;25639;53.634;9.880;2023-04-29T01:49:26;148866.59;;;-14.27
39959;BMP280;25639;53.634;9.880;2023-04-29T01:51:52;148875.34;;;-14.24
39959;BMP280;25639;53.634;9.880;2023-04-29T01:54:17;148852.81;;;-14.33
39959;BMP280;25639;53.634;9.880;2023-04-29T01:56:43;148871.56;;;-14.25
39959;BMP280;25639;53.634;9.880;2023-04-29T01:59:08;148864.09;;;-14.28
39959;BMP280;25639;53.634;9.880;2023-04-29T02:01:34;148907.88;;;-14.10
39959;BMP280;25639;53.634;9.880;2023-04-29T02:03:59;148870.34;;;-14.26
39959;BMP280;25639;53.634;9.880;2023-04-29T02:06:24;148861.59;;;-14.29
39959;BMP280;25639;53.634;9.880;2023-04-29T02:08:50;148882.84;;;-14.21
39959;BMP280;25639;53.634;9.880;2023-04-29T02:11:16;148884.09;;;-14.20
39959;BMP280;25639;53.634;9.880;2023-04-29T02:13:41;148909.13;;;-14.10
39959;BMP280;25639;53.634;9.880;2023-04-29T02:16:10;148876.63;;;-14.23
39959;BMP280;25639;53.634;9.880;2023-04-29T02:18:36;148857.81;;;-14.31
39959;BMP280;25639;53.634;9.880;2023-04-29T02:21:01;148884.09;;;-14.20
39959;BMP280;25639;53.634;9.880;2023-04-29T02:23:27;148894.13;;;-14.16
39959;BMP280;25639;53.634;9.880;2023-04-29T02:25:53;148899.13;;;-14.14
39959;BMP280;25639;53.634;9.880;2023-04-29T02:28:19;148896.59;;;-14.15
39959;BMP280;25639;53.634;9.880;2023-04-29T02:30:44;148881.63;;;-14.21
39959;BMP280;25639;53.634;9.880;2023-04-29T02:33:10;148854.06;;;-14.32
39959;BMP280;25639;53.634;9.880;2023-04-29T02:35:35;148854.06;;;-14.32
39959;BMP280;25639;53.634;9.880;2023-04-29T02:38:00;148876.63;;;-14.23
39959;BMP280;25639;53.634;9.880;2023-04-29T02:40:26;148852.81;;;-14.33
39959;BMP280;25639;53.634;9.880;2023-04-29T02:42:51;148861.59;;;-14.29
39959;BMP280;25639;53.634;9.880;2023-04-29T02:45:17;148881.63;;;-14.21
39959;BMP280;25639;53.634;9.880;2023-04-29T02:47:42;148899.13;;;-14.14
39959;BMP280;25639;53.634;9.880;2023-04-29T02:50:08;148894.13;;;-14.16
39959;BMP280;25639;53.634;9.880;2023-04-29T02:52:33;148889.13;;;-14.18
39959;BMP280;25639;53.634;9.880;2023-04-29T02:54:58;148889.13;;;-14.18
39959;BMP280;25639;53.634;9.880;2023-04-29T02:57:24;148874.09;;;-14.24
39959;BMP280;25639;53.634;9.880;2023-04-29T02:59:49;148867.88;;;-14.27
39959;BMP280;25639;53.634;9.880;2023-04-29T03:02:15;148837.84;;;-14.39
39959;BMP280;25639;53.634;9.880;2023-04-29T03:04:41;148839.06;;;-14.39
39959;BMP280;25639;53.634;9.880;2023-04-29T03:07:06;148840.31;;;-14.38
39959;BMP280;25639;53.634;9.880;2023-04-29T03:09:32;148851.59;;;-14.33
39959;BMP280;25639;53.634;9.880;2023-04-29T03:11:57;148837.84;;;-14.39
39959;BMP280;25639;53.634;9.880;2023-04-29T03:14:22;148812.81;;;-14.49
39959;BMP280;25639;53.634;9.880;2023-04-29T03:16:48;148816.56;;;-14.48
39959;BMP280;25639;53.634;9.880;2023-04-29T03:19:13;148820.31;;;-14.46
39959;BMP280;25639;53.634;9.880;2023-04-29T03:21:38;148819.03;;;-14.47
39959;BMP280;25639;53.634;9.880;2023-04-29T03:24:04;148806.56;;;-14.52
39959;BMP280;25639;53.634;9.880;2023-04-29T03:26:29;148824.09;;;-14.45
39959;BMP280;25639;53.634;9.880;2023-04-29T03:28:54;148820.31;;;-14.46
39959;BMP280;25639;53.634;9.880;2023-04-29T03:31:20;148814.03;;;-14.49
39959;BMP280;25639;53.634;9.880;2023-04-29T03:33:47;148842.84;;;-14.37
39959;BMP280;25639;53.634;9.880;2023-04-29T03:36:12;148817.81;;;-14.47
39959;BMP280;25639;53.634;9.880;2023-04-29T03:38:37;148832.84;;;-14.41
39959;BMP280;25639;53.634;9.880;2023-04-29T03:41:03;148820.31;;;-14.46
39959;BMP280;25639;53.634;9.880;2023-04-29T03:43:28;148819.03;;;-14.47
39959;BMP280;25639;53.634;9.880;2023-04-29T03:45:54;148837.84;;;-14.39
39959;BMP280;25639;53.634;9.880;2023-04-29T03:48:19;148824.09;;;-14.45
39959;BMP280;25639;53.634;9.880;2023-04-29T03:50:45;148829.09;;;-14.43
39959;BMP280;25639;53.634;9.880;2023-04-29T03:53:11;148819.03;;;-14.47
39959;BMP280;25639;53.634;9.880;2023-04-29T03:55:36;148812.81;;;-14.49
39959;BMP280;25639;53.634;9.880;2023-04-29T03:58:02;148824.09;;;-14.45
39959;BMP280;25639;53.634;9.880;2023-04-29T04:00:29;148814.03;;;-14.49
39959;BMP280;25639;53.634;9.880;2023-04-29T04:02:55;148819.03;;;-14.47
39959;BMP280;25639;53.634;9.880;2023-04-29T04:05:21;148809.06;;;-14.51
39959;BMP280;25639;53.634;9.880;2023-04-29T04:07:49;148812.81;;;-14.49
39959;BMP280;25639;53.634;9.880;2023-04-29T04:10:14;148805.28;;;-14.52
39959;BMP280;25639;53.634;9.880;2023-04-29T04:12:40;148819.03;;;-14.47
39959;BMP280;25639;53.634;9.880;2023-04-29T04:15:05;148829.09;;;-14.43
39959;BMP280;25639;53.634;9.880;2023-04-29T04:17:31;148820.31;;;-14.46
39959;BMP280;25639;53.634;9.880;2023-04-29T04:19:56;148819.03;;;-14.47
39959;BMP280;25639;53.634;9.880;2023-04-29T04:22:21;148825.31;;;-14.44
39959;BMP280;25639;53.634;9.880;2023-04-29T04:24:47;148801.53;;;-14.54
39959;BMP280;25639;53.634;9.880;2023-04-29T04:27:12;148797.81;;;-14.55
39959;BMP280;25639;53.634;9.880;2023-04-29T04:29:37;148787.84;;;-14.60
39959;BMP280;25639;53.634;9.880;2023-04-29T04:32:03;148776.59;;;-14.64
39959;BMP280;25639;53.634;9.880;2023-04-29T04:34:28;148824.09;;;-14.45
39959;BMP280;25639;53.634;9.880;2023-04-29T04:36:54;148860.34;;;-14.30
39959;BMP280;25639;53.634;9.880;2023-04-29T04:39:19;148839.06;;;-14.39
39959;BMP280;25639;53.634;9.880;2023-04-29T04:41:45;148860.34;;;-14.30
39959;BMP280;25639;53.634;9.880;2023-04-29T04:44:10;148851.59;;;-14.33
39959;BMP280;25639;53.634;9.880;2023-04-29T04:46:35;148872.84;;;-14.25
39959;BMP280;25639;53.634;9.880;2023-04-29T04:49:01;148912.88;;;-14.08
39959;BMP280;25639;53.634;9.880;2023-04-29T04:51:26;148939.16;;;-13.97
39959;BMP280;25639;53.634;9.880;2023-04-29T04:53:53;149039.28;;;-13.56
39959;BMP280;25639;53.634;9.880;2023-04-29T04:56:18;149026.78;;;-13.62
39959;BMP280;25639;53.634;9.880;2023-04-29T04:58:43;149059.34;;;-13.48
39959;BMP280;25639;53.634;9.880;2023-04-29T05:01:09;149165.69;;;-13.05
39959;BMP280;25639;53.634;9.880;2023-04-29T05:03:34;149175.69;;;-13.00
39959;BMP280;25639;53.634;9.880;2023-04-29T05:06:00;149180.72;;;-12.98
39959;BMP280;25639;53.634;9.880;2023-04-29T05:08:25;149290.97;;;-12.53
39959;BMP280;25639;53.634;9.880;2023-04-29T05:10:51;149317.28;;;-12.42
39959;BMP280;25639;53.634;9.880;2023-04-29T05:13:18;149367.38;;;-12.22
39959;BMP280;25639;53.634;9.880;2023-04-29T05:15:43;149481.41;;;-11.75
39959;BMP280;25639;53.634;9.880;2023-04-29T05:18:09;149532.84;;;-11.54
39959;BMP280;25639;53.634;9.880;2023-04-29T05:20:35;149468.88;;;-11.80
39959;BMP280;25639;53.634;9.880;2023-04-29T05:23:01;149401.25;;;-12.08
39959;BMP280;25639;53.634;9.880;2023-04-29T05:25:26;149377.41;;;-12.18
39959;BMP280;25639;53.634;9.880;2023-04-29T05:27:51;149347.38;;;-12.30
39959;BMP280;25639;53.634;9.880;2023-04-29T05:30:17;149307.22;;;-12.47
39959;BMP280;25639;53.634;9.880;2023-04-29T05:32:43;149332.31;;;-12.36
39959;BMP280;25639;53.634;9.880;2023-04-29T05:35:10;149398.72;;;-12.09
39959;BMP280;25639;53.634;9.880;2023-04-29T05:37:35;149438.88;;;-11.93
39959;BMP280;25639;53.634;9.880;2023-04-29T05:40:00;149452.59;;;-11.87
39959;BMP280;25639;53.634;9.880;2023-04-29T05:42:25;149440.09;;;-11.92
39959;BMP280;25639;53.634;9.880;2023-04-29T05:44:51;149525.28;;;-11.57
39959;BMP280;25639;53.634;9.880;2023-04-29T05:47:16;149609.34;;;-11.23
39959;BMP280;25639;53.634;9.880;2023-04-29T05:49:42;149682.09;;;-10.93
39959;BMP280;25639;53.634;9.880;2023-04-29T05:52:07;149736.06;;;-10.71
39959;BMP280;25639;53.634;9.880;2023-04-29T05:54:32;149718.50;;;-10.78
39959;BMP280;25639;53.634;9.880;2023-04-29T05:56:59;149714.75;;;-10.80
39959;BMP280;25639;53.634;9.880;2023-04-29T05:59:29;149741.09;;;-10.69
39959;BMP280;25639;53.634;9.880;2023-04-29T06:01:56;149816.38;;;-10.38
39959;BMP280;25639;53.634;9.880;2023-04-29T06:04:21;149806.34;;;-10.42
39959;BMP280;25639;53.634;9.880;2023-04-29T06:06:47;149678.31;;;-10.95
39959;BMP280;25639;53.634;9.880;2023-04-29T06:09:13;149783.78;;;-10.51
39959;BMP280;25639;53.634;9.880;2023-04-29T06:11:41;149780.00;;;-10.53
39959;BMP280;25639;53.634;9.880;2023-04-29T06:14:08;149728.53;;;-10.74
39959;BMP280;25639;53.634;9.880;2023-04-29T06:16:33;149636.94;;;-11.12
39959;BMP280;25639;53.634;9.880;2023-04-29T06:18:58;149695.88;;;-10.87
39959;BMP280;25639;53.634;9.880;2023-04-29T06:21:24;149653.25;;;-11.05
39959;BMP280;25639;53.634;9.880;2023-04-29T06:23:49;149737.31;;;-10.70
39959;BMP280;25639;53.634;9.880;2023-04-29T06:26:15;149790.03;;;-10.49
39959;BMP280;25639;53.634;9.880;2023-04-29T06:28:40;149771.22;;;-10.57
39959;BMP280;25639;53.634;9.880;2023-04-29T06:31:05;149743.56;;;-10.68
39959;BMP280;25639;53.634;9.880;2023-04-29T06:33:31;149685.84;;;-10.91
39959;BMP280;25639;53.634;9.880;2023-04-29T06:35:58;149884.09;;;-10.10
39959;BMP280;25639;53.634;9.880;2023-04-29T06:38:23;150101.41;;;-9.22
39959;BMP280;25639;53.634;9.880;2023-04-29T06:40:48;150220.78;;;-8.73
39959;BMP280;25639;53.634;9.880;2023-04-29T06:43:13;150398.06;;;-8.00
39959;BMP280;25639;53.634;9.880;2023-04-29T06:45:39;150437.06;;;-7.84
39959;BMP280;25639;53.634;9.880;2023-04-29T06:48:04;150450.88;;;-7.79
39959;BMP280;25639;53.634;9.880;2023-04-29T06:50:30;150346.50;;;-8.21
39959;BMP280;25639;53.634;9.880;2023-04-29T06:52:55;150544.00;;;-7.41
39959;BMP280;25639;53.634;9.880;2023-04-29T06:55:20;150538.97;;;-7.43
39959;BMP280;25639;53.634;9.880;2023-04-29T06:57:46;150556.59;;;-7.36
39959;BMP280;25639;53.634;9.880;2023-04-29T07:00:11;150634.63;;;-7.04
39959;BMP280;25639;53.634;9.880;2023-04-29T07:02:36;150648.47;;;-6.98
39959;BMP280;25639;53.634;9.880;2023-04-29T07:05:03;150671.13;;;-6.89
39959;BMP280;25639;53.634;9.880;2023-04-29T07:07:29;150651.00;;;-6.97
39959;BMP280;25639;53.634;9.880;2023-04-29T07:09:54;150750.44;;;-6.57
39959;BMP280;25639;53.634;9.880;2023-04-29T07:12:20;150701.34;;;-6.77
39959;BMP280;25639;53.634;9.880;2023-04-29T07:14:45;150673.66;;;-6.88
39959;BMP280;25639;53.634;9.880;2023-04-29T07:17:11;150799.53;;;-6.37
39959;BMP280;25639;53.634;9.880;2023-04-29T07:19:36;150773.09;;;-6.47
39959;BMP280;25639;53.634;9.880;2023-04-29T07:22:01;150664.84;;;-6.92
39959;BMP280;25639;53.634;9.880;2023-04-29T07:24:28;150793.25;;;-6.39
39959;BMP280;25639;53.634;9.880;2023-04-29T07:26:53;150808.34;;;-6.33
39959;BMP280;25639;53.634;9.880;2023-04-29T07:29:18;150820.97;;;-6.28
39959;BMP280;25639;53.634;9.880;2023-04-29T07:31:43;150834.84;;;-6.22
39959;BMP280;25639;53.634;9.880;2023-04-29T07:34:09;150721.50;;;-6.68
39959;BMP280;25639;53.634;9.880;2023-04-29T07:36:34;150769.34;;;-6.49
39959;BMP280;25639;53.634;9.880;2023-04-29T07:38:59;150773.09;;;-6.47
39959;BMP280;25639;53.634;9.880;2023-04-29T07:41:27;150760.53;;;-6.53
39959;BMP280;25639;53.634;9.880;2023-04-29T07:43:53;150836.09;;;-6.22
39959;BMP280;25639;53.634;9.880;2023-04-29T07:46:18;150928.03;;;-5.84
39959;BMP280;25639;53.634;9.880;2023-04-29T07:48:43;150907.84;;;-5.93
39959;BMP280;25639;53.634;9.880;2023-04-29T07:51:13;150834.84;;;-6.22
39959;BMP280;25639;53.634;9.880;2023-04-29T07:53:40;150608.19;;;-7.15
39959;BMP280;25639;53.634;9.880;2023-04-29T07:56:06;150669.88;;;-6.90
39959;BMP280;25639;53.634;9.880;2023-04-29T07:58:32;150437.06;;;-7.84
39959;BMP280;25639;53.634;9.880;2023-04-29T08:01:07;150569.16;;;-7.31
39959;BMP280;25639;53.634;9.880;2023-04-29T08:03:33;150629.59;;;-7.06
39959;BMP280;25639;53.634;9.880;2023-04-29T08:06:01;150537.72;;;-7.43
39959;BMP280;25639;53.634;9.880;2023-04-29T08:08:27;150537.72;;;-7.43
39959;BMP280;25639;53.634;9.880;2023-04-29T08:10:52;150684.97;;;-6.83
39959;BMP280;25639;53.634;9.880;2023-04-29T08:13:17;150750.44;;;-6.57
39959;BMP280;25639;53.634;9.880;2023-04-29T08:15:43;150883.97;;;-6.02
39959;BMP280;25639;53.634;9.880;2023-04-29T08:18:08;150867.59;;;-6.09
39959;BMP280;25639;53.634;9.880;2023-04-29T08:20:33;150958.28;;;-5.72
39959;BMP280;25639;53.634;9.880;2023-04-29T08:22:59;150890.25;;;-6.00
39959;BMP280;25639;53.634;9.880;2023-04-29T08:25:25;150837.34;;;-6.21
39959;BMP280;25639;53.634;9.880;2023-04-29T08:27:51;150871.38;;;-6.07
39959;BMP280;25639;53.634;9.880;2023-04-29T08:30:16;150953.25;;;-5.74
39959;BMP280;25639;53.634;9.880;2023-04-29T08:32:42;150978.41;;;-5.64
39959;BMP280;25639;53.634;9.880;2023-04-29T08:35:07;151027.56;;;-5.44
39959;BMP280;25639;53.634;9.880;2023-04-29T08:37:33;151036.38;;;-5.40
39959;BMP280;25639;53.634;9.880;2023-04-29T08:39:58;151159.97;;;-4.90
39959;BMP280;25639;53.634;9.880;2023-04-29T08:42:34;151157.44;;;-4.91
39959;BMP280;25639;53.634;9.880;2023-04-29T08:45:01;151323.94;;;-4.23
39959;BMP280;25639;53.634;9.880;2023-04-29T08:47:30;151305.00;;;-4.31
39959;BMP280;25639;53.634;9.880;2023-04-29T08:50:01;151461.47;;;-3.67
39959;BMP280;25639;53.634;9.880;2023-04-29T08:52:28;151441.28;;;-3.75
39959;BMP280;25639;53.634;9.880;2023-04-29T08:54:53;151447.59;;;-3.73
39959;BMP280;25639;53.634;9.880;2023-04-29T08:57:20;151514.47;;;-3.46
39959;BMP280;25639;53.634;9.880;2023-04-29T08:59:46;151395.84;;;-3.94
39959;BMP280;25639;53.634;9.880;2023-04-29T09:02:15;151255.78;;;-4.51
39959;BMP280;25639;53.634;9.880;2023-04-29T09:05:03;151379.47;;;-4.00
39959;BMP280;25639;53.634;9.880;2023-04-29T09:07:32;151422.34;;;-3.83
39959;BMP280;25639;53.634;9.880;2023-04-29T09:09:58;151356.72;;;-4.10
39959;BMP280;25639;53.634;9.880;2023-04-29T09:12:24;151451.38;;;-3.71
39959;BMP280;25639;53.634;9.880;2023-04-29T09:14:49;151474.09;;;-3.62
39959;BMP280;25639;53.634;9.880;2023-04-29T09:17:15;151470.31;;;-3.64
39959;BMP280;25639;53.634;9.880;2023-04-29T09:19:40;151503.16;;;-3.50
39959;BMP280;25639;53.634;9.880;2023-04-29T09:22:07;151580.13;;;-3.19
39959;BMP280;25639;53.634;9.880;2023-04-29T09:24:33;151682.41;;;-2.77
39959;BMP280;25639;53.634;9.880;2023-04-29T09:26:59;151679.91;;;-2.78
39959;BMP280;25639;53.634;9.880;2023-04-29T09:29:24;151734.22;;;-2.56
39959;BMP280;25639;53.634;9.880;2023-04-29T09:31:50;151748.13;;;-2.51
39959;BMP280;25639;53.634;9.880;2023-04-29T09:34:32;151650.84;;;-2.90
39959;BMP280;25639;53.634;9.880;2023-04-29T09:37:00;151625.63;;;-3.00
39959;BMP280;25639;53.634;9.880;2023-04-29T09:39:25;151445.03;;;-3.74
39959;BMP280;25639;53.634;9.880;2023-04-29T09:44:16;151510.69;;;-3.47
39959;BMP280;25639;53.634;9.880;2023-04-29T09:46:41;151551.13;;;-3.31
39959;BMP280;25639;53.634;9.880;2023-04-29T09:49:23;151679.91;;;-2.78
39959;BMP280;25639;53.634;9.880;2023-04-29T09:51:57;151703.91;;;-2.69
39959;BMP280;25639;53.634;9.880;2023-04-29T09:54:25;151764.56;;;-2.44
39959;BMP280;25639;53.634;9.880;2023-04-29T09:56:53;151760.75;;;-2.45
39959;BMP280;25639;53.634;9.880;2023-04-29T09:59:19;151778.44;;;-2.38
39959;BMP280;25639;53.634;9.880;2023-04-29T10:01:52;151735.53;;;-2.56
39959;BMP280;25639;53.634;9.880;2023-04-29T10:04:19;151754.47;;;-2.48
39959;BMP280;25639;53.634;9.880;2023-04-29T10:06:49;151791.09;;;-2.33
39959;BMP280;25639;53.634;9.880;2023-04-29T10:09:15;151829.00;;;-2.18
39959;BMP280;25639;53.634;9.880;2023-04-29T10:11:43;151839.09;;;-2.14
39959;BMP280;25639;53.634;9.880;2023-04-29T10:14:13;151850.50;;;-2.09
39959;BMP280;25639;53.634;9.880;2023-04-29T10:16:47;151659.69;;;-2.87
39959;BMP280;25639;53.634;9.880;2023-04-29T10:19:56;151826.47;;;-2.19
39959;BMP280;25639;53.634;9.880;2023-04-29T10:22:35;151662.25;;;-2.85
39959;BMP280;25639;53.634;9.880;2023-04-29T10:25:01;151681.16;;;-2.78
39959;BMP280;25639;53.634;9.880;2023-04-29T10:27:30;151760.75;;;-2.45
39959;BMP280;25639;53.634;9.880;2023-04-29T10:29:57;151730.44;;;-2.58
39959;BMP280;25639;53.634;9.880;2023-04-29T10:32:25;151751.91;;;-2.49
39959;BMP280;25639;53.634;9.880;2023-04-29T10:34:53;151730.44;;;-2.58
39959;BMP280;25639;53.634;9.880;2023-04-29T10:37:20;151595.31;;;-3.13
39959;BMP280;25639;53.634;9.880;2023-04-29T10:40:11;151668.53;;;-2.83
39959;BMP280;25639;53.634;9.880;2023-04-29T10:42:47;151510.69;;;-3.47
39959;BMP280;25639;53.634;9.880;2023-04-29T10:50:33;151477.88;;;-3.60
39959;BMP280;25639;53.634;9.880;2023-04-29T10:53:02;151456.41;;;-3.69
39959;BMP280;25639;53.634;9.880;2023-04-29T10:55:28;151469.06;;;-3.64
39959;BMP280;25639;53.634;9.880;2023-04-29T10:57:54;151481.69;;;-3.59
39959;BMP280;25639;53.634;9.880;2023-04-29T11:00:30;151650.84;;;-2.90
39959;BMP280;25639;53.634;9.880;2023-04-29T11:03:00;151715.28;;;-2.64
39959;BMP280;25639;53.634;9.880;2023-04-29T11:05:36;151542.28;;;-3.34
39959;BMP280;25639;53.634;9.880;2023-04-29T11:08:12;151582.69;;;-3.18
39959;BMP280;25639;53.634;9.880;2023-04-29T11:10:43;151442.53;;;-3.75
39959;BMP280;25639;53.634;9.880;2023-04-29T11:13:25;151371.88;;;-4.04
39959;BMP280;25639;53.634;9.880;2023-04-29T11:15:52;151402.16;;;-3.91
39959;BMP280;25639;53.634;9.880;2023-04-29T11:18:17;151351.66;;;-4.12
39959;BMP280;25639;53.634;9.880;2023-04-29T11:23:32;151379.47;;;-4.00
39959;BMP280;25639;53.634;9.880;2023-04-29T11:25:58;151636.97;;;-2.96
39959;BMP280;25639;53.634;9.880;2023-04-29T11:28:23;151597.81;;;-3.12
39959;BMP280;25639;53.634;9.880;2023-04-29T11:30:52;151653.41;;;-2.89
39959;BMP280;25639;53.634;9.880;2023-04-29T11:33:19;151693.81;;;-2.73
39959;BMP280;25639;53.634;9.880;2023-04-29T11:35:44;151399.63;;;-3.92
39959;BMP280;25639;53.634;9.880;2023-04-29T11:38:10;151479.13;;;-3.60
39959;BMP280;25639;53.634;9.880;2023-04-29T11:40:49;151477.88;;;-3.60
39959;BMP280;25639;53.634;9.880;2023-04-29T11:43:22;151613.00;;;-3.05
39959;BMP280;25639;53.634;9.880;2023-04-29T11:45:48;151542.28;;;-3.34
39959;BMP280;25639;53.634;9.880;2023-04-29T11:48:24;151620.53;;;-3.02
39959;BMP280;25639;53.634;9.880;2023-04-29T11:50:56;151610.44;;;-3.07
39959;BMP280;25639;53.634;9.880;2023-04-29T11:53:24;151645.81;;;-2.92
39959;BMP280;25639;53.634;9.880;2023-04-29T11:55:52;151609.19;;;-3.07
39959;BMP280;25639;53.634;9.880;2023-04-29T11:58:19;151535.94;;;-3.37
39959;BMP280;25639;53.634;9.880;2023-04-29T12:00:46;151520.81;;;-3.43
39959;BMP280;25639;53.634;9.880;2023-04-29T12:03:16;151443.78;;;-3.74
39959;BMP280;25639;53.634;9.880;2023-04-29T12:05:55;151297.44;;;-4.34
39959;BMP280;25639;53.634;9.880;2023-04-29T12:08:26;151229.28;;;-4.62
39959;BMP280;25639;53.634;9.880;2023-04-29T12:11:00;151306.25;;;-4.30
39959;BMP280;25639;53.634;9.880;2023-04-29T12:13:31;151390.78;;;-3.96
39959;BMP280;25639;53.634;9.880;2023-04-29T12:16:02;151364.28;;;-4.07
39959;BMP280;25639;53.634;9.880;2023-04-29T12:18:28;151260.88;;;-4.49
39959;BMP280;25639;53.634;9.880;2023-04-29T12:20:56;151277.22;;;-4.42
39959;BMP280;25639;53.634;9.880;2023-04-29T12:23:25;151376.91;;;-4.02
39959;BMP280;25639;53.634;9.880;2023-04-29T12:25:58;151392.03;;;-3.95
39959;BMP280;25639;53.634;9.880;2023-04-29T12:28:25;151293.63;;;-4.35
39959;BMP280;25639;53.634;9.880;2023-04-29T12:30:53;151195.28;;;-4.75
39959;BMP280;25639;53.634;9.880;2023-04-29T12:33:26;151168.78;;;-4.86
39959;BMP280;25639;53.634;9.880;2023-04-29T12:35:55;151303.72;;;-4.31
39959;BMP280;25639;53.634;9.880;2023-04-29T12:38:25;151163.72;;;-4.88
39959;BMP280;25639;53.634;9.880;2023-04-29T12:40:58;151187.69;;;-4.79
39959;BMP280;25639;53.634;9.880;2023-04-29T12:43:29;151209.13;;;-4.70
39959;BMP280;25639;53.634;9.880;2023-04-29T12:46:09;151195.28;;;-4.75
39959;BMP280;25639;53.634;9.880;2023-04-29T12:48:42;151091.84;;;-5.18
39959;BMP280;25639;53.634;9.880;2023-04-29T12:51:11;150996.06;;;-5.57
39959;BMP280;25639;53.634;9.880;2023-04-29T12:53:38;151055.31;;;-5.32
39959;BMP280;25639;53.634;9.880;2023-04-29T12:56:04;150984.75;;;-5.61
39959;BMP280;25639;53.634;9.880;2023-04-29T12:58:30;151072.97;;;-5.25
39959;BMP280;25639;53.634;9.880;2023-04-29T13:00:57;151141.03;;;-4.98
39959;BMP280;25639;53.634;9.880;2023-04-29T13:03:23;151211.63;;;-4.69
39959;BMP280;25639;53.634;9.880;2023-04-29T13:05:49;151230.59;;;-4.61
39959;BMP280;25639;53.634;9.880;2023-04-29T13:08:18;151157.44;;;-4.91
39959;BMP280;25639;53.634;9.880;2023-04-29T13:10:43;151157.44;;;-4.91
39959;BMP280;25639;53.634;9.880;2023-04-29T13:13:09;151159.97;;;-4.90
39959;BMP280;25639;53.634;9.880;2023-04-29T13:15:35;151099.44;;;-5.14
39959;BMP280;25639;53.634;9.880;2023-04-29T13:18:02;151089.38;;;-5.19
39959;BMP280;25639;53.634;9.880;2023-04-29T13:20:27;151085.56;;;-5.20
39959;BMP280;25639;53.634;9.880;2023-04-29T13:22:53;151027.56;;;-5.44
39959;BMP280;25639;53.634;9.880;2023-04-29T13:25:18;151061.59;;;-5.30
39959;BMP280;25639;53.634;9.880;2023-04-29T13:27:44;150988.53;;;-5.60
39959;BMP280;25639;53.634;9.880;2023-04-29T13:30:09;151015.00;;;-5.49
39959;BMP280;25639;53.634;9.880;2023-04-29T13:32:35;151011.19;;;-5.50
39959;BMP280;25639;53.634;9.880;2023-04-29T13:35:01;151069.16;;;-5.27
39959;BMP280;25639;53.634;9.880;2023-04-29T13:37:26;151096.91;;;-5.15
39959;BMP280;25639;53.634;9.880;2023-04-29T13:39:52;150994.81;;;-5.57
39959;BMP280;25639;53.634;9.880;2023-04-29T13:42:17;150959.50;;;-5.71
39959;BMP280;25639;53.634;9.880;2023-04-29T13:44:42;150877.66;;;-6.05
39959;BMP280;25639;53.634;9.880;2023-04-29T13:47:14;150955.72;;;-5.73
39959;BMP280;25639;53.634;9.880;2023-04-29T13:49:40;150943.13;;;-5.78
39959;BMP280;25639;53.634;9.880;2023-04-29T13:52:06;150923.00;;;-5.86
39959;BMP280;25639;53.634;9.880;2023-04-29T13:54:32;150875.16;;;-6.06
39959;BMP280;25639;53.634;9.880;2023-04-29T13:56:57;150934.31;;;-5.82
39959;BMP280;25639;53.634;9.880;2023-04-29T13:59:23;151046.50;;;-5.36
39959;BMP280;25639;53.634;9.880;2023-04-29T14:01:48;150997.34;;;-5.56
39959;BMP280;25639;53.634;9.880;2023-04-29T14:04:15;150999.84;;;-5.55
39959;BMP280;25639;53.634;9.880;2023-04-29T14:06:41;150970.88;;;-5.67
39959;BMP280;25639;53.634;9.880;2023-04-29T14:09:07;150983.44;;;-5.62